Thayer, Missouri
Current Conditions -  °F | °C
As of 10:53 PM on Saturday 20 Dec 2014 (Local Time) from KUNO Reporting Station
Overcast Overcast  
Wind Chill: 35°   Ceiling: 2500
Heat Index: 40°   Visibility: 9mi
Dew Point: 36°   Wind: 7mph
Humidity: 86%   Direction: 140°SE
Pressure: 30.22"   Gusts: NA
Location:  36.52°N, 91.54°W
Report Text: KUNO 210453Z AUTO 14006KT 9SM OVC025 04/02 A3022 RMK AO2 SLP239 T00440022 $
Loading
Personal Weather Stations






























Interactive Weather Map New forecast layout! Learn more

10-Day Weather Forecast

Advertisements
Track Severe Weather on mobile